Terminal Aerodrome Forecast
Issued by NWS Sioux Falls, SD

Home | Current Version | Previous Version | Graphics & Text | Print | Product List | Glossary On
Versions: 1 2 3 4 5 6 7 8 9 10 11 12 13 14 15 16 17 18 19 20 21
165
FTUS43 KFSD 221720
TAFSUX
TAF
KSUX 221720Z 2218/2318 36007KT P6SM FEW250
     FM230100 VRB03KT P6SM SKC
     FM231400 21008KT P6SM SKC
     FM231700 20012KT P6SM SKC=

USA.gov is the U.S. government's official web portal to all federal, state and local government web resources and services.